Time;durP1;ratioP1;P1;durP2;ratioP2;P2;SDS_P1;SDS_P2;PMS_P1;PMS_P2;Temp;Humidity;BMP_temperature;BMP_pressure;BME280_temperature;BME280_humidity;BME280_pressure;Samples;Min_cycle;Max_cycle;Signal;HPM_P1;HPM_P2
2023/09/09 00:01:31;;;;;;;7.22;4.60;;;18.80;99.90;;;;;;4987789;28;20040;-64
2023/09/09 00:03:58;;;;;;;4.93;4.50;;;18.70;99.90;;;;;;5007573;28;20050;-64
2023/09/09 00:06:24;;;;;;;5.63;4.68;;;18.70;99.90;;;;;;4989336;28;20413;-63
2023/09/09 00:08:50;;;;;;;5.70;5.03;;;18.70;99.90;;;;;;5008720;28;20045;-64
2023/09/09 00:11:15;;;;;;;9.40;5.05;;;18.70;99.90;;;;;;5007281;28;20034;-63
2023/09/09 00:13:41;;;;;;;9.48;5.82;;;18.70;99.90;;;;;;4997699;28;20084;-64
2023/09/09 00:16:09;;;;;;;6.63;5.15;;;18.70;99.90;;;;;;5002870;28;20099;-63
2023/09/09 00:18:34;;;;;;;6.18;5.30;;;18.60;99.90;;;;;;4973140;28;20472;-64
2023/09/09 00:21:00;;;;;;;7.57;5.75;;;18.60;99.90;;;;;;4988777;28;20085;-64
2023/09/09 00:23:26;;;;;;;6.80;5.53;;;18.60;99.90;;;;;;4986320;28;20042;-63
2023/09/09 00:25:52;;;;;;;7.90;6.35;;;18.60;99.90;;;;;;5008350;28;20049;-64
2023/09/09 00:28:18;;;;;;;7.47;5.93;;;18.60;99.90;;;;;;5006672;28;20077;-64
2023/09/09 00:30:43;;;;;;;7.05;6.35;;;18.60;99.90;;;;;;4989505;28;20038;-64
2023/09/09 00:33:09;;;;;;;13.40;7.80;;;18.50;99.90;;;;;;5005853;28;20125;-63
2023/09/09 00:35:38;;;;;;;9.00;6.35;;;18.60;99.90;;;;;;5007128;28;20073;-63
2023/09/09 00:38:06;;;;;;;10.32;6.85;;;18.60;99.90;;;;;;5007630;28;20052;-63
2023/09/09 00:40:32;;;;;;;8.90;6.30;;;18.60;99.90;;;;;;5006538;28;20484;-64
2023/09/09 00:42:58;;;;;;;9.77;7.20;;;18.50;99.90;;;;;;5008038;28;20400;-63
2023/09/09 00:45:25;;;;;;;21.00;7.05;;;18.60;99.90;;;;;;5005261;28;20050;-64
2023/09/09 00:47:51;;;;;;;11.10;6.65;;;18.50;99.90;;;;;;5008182;28;20805;-63
2023/09/09 00:50:17;;;;;;;7.90;6.72;;;18.50;99.90;;;;;;5004280;28;20085;-64
2023/09/09 00:52:43;;;;;;;10.38;6.30;;;18.60;99.90;;;;;;4978507;28;20543;-63
2023/09/09 00:55:11;;;;;;;7.30;6.38;;;18.60;99.90;;;;;;4989830;28;20046;-63
2023/09/09 00:57:36;;;;;;;9.88;6.78;;;18.60;99.90;;;;;;5006027;28;20452;-63
2023/09/09 01:00:09;;;;;;;8.02;7.10;;;18.50;99.90;;;;;;4998337;28;20049;-64
2023/09/09 01:02:39;;;;;;;8.88;6.43;;;18.50;99.90;;;;;;4976789;28;20045;-63
2023/09/09 01:05:06;;;;;;;9.68;6.80;;;18.60;99.90;;;;;;5000875;28;20095;-64
2023/09/09 01:07:42;;;;;;;8.98;6.18;;;18.50;99.90;;;;;;4988847;28;20050;-63
2023/09/09 01:10:08;;;;;;;7.47;6.60;;;18.50;99.90;;;;;;5006949;28;20177;-63
2023/09/09 01:12:34;;;;;;;8.60;6.75;;;18.60;99.90;;;;;;5000269;28;20132;-63
2023/09/09 01:14:59;;;;;;;9.98;7.05;;;18.50;99.90;;;;;;4988914;28;20672;-63
2023/09/09 01:17:26;;;;;;;8.90;6.47;;;18.50;99.90;;;;;;5007298;28;20065;-63
2023/09/09 01:19:58;;;;;;;7.70;6.88;;;18.60;99.90;;;;;;5000652;28;20042;-63
2023/09/09 01:22:24;;;;;;;7.90;7.10;;;18.60;99.90;;;;;;4974245;28;20486;-63
2023/09/09 01:24:49;;;;;;;10.50;7.18;;;18.60;99.90;;;;;;5006514;28;20042;-63
2023/09/09 01:27:15;;;;;;;8.15;7.28;;;18.50;99.90;;;;;;4976239;28;20893;-63
2023/09/09 01:29:41;;;;;;;8.07;6.93;;;18.50;99.90;;;;;;5005234;28;20072;-63
2023/09/09 01:32:06;;;;;;;8.90;6.78;;;18.50;99.90;;;;;;5005070;28;20050;-63
2023/09/09 01:34:32;;;;;;;11.60;7.47;;;18.50;99.90;;;;;;5007077;28;20042;-63
2023/09/09 01:36:58;;;;;;;8.90;6.75;;;18.40;99.90;;;;;;5010276;28;20099;-63
2023/09/09 01:39:24;;;;;;;8.65;7.22;;;18.40;99.90;;;;;;4993698;28;20041;-63
2023/09/09 01:41:50;;;;;;;7.90;7.07;;;18.40;99.90;;;;;;5009902;28;20057;-63
2023/09/09 01:44:15;;;;;;;8.88;7.18;;;18.40;99.90;;;;;;5006243;28;20057;-63
2023/09/09 01:46:41;;;;;;;8.45;7.10;;;18.30;99.90;;;;;;5010638;28;20054;-63
2023/09/09 01:49:07;;;;;;;9.40;6.97;;;18.30;99.90;;;;;;5010990;28;20058;-64
2023/09/09 01:51:34;;;;;;;12.35;7.20;;;18.40;99.90;;;;;;5010189;28;20061;-63
2023/09/09 01:53:59;;;;;;;7.32;6.60;;;18.30;99.90;;;;;;5010129;28;20049;-63
2023/09/09 01:56:25;;;;;;;7.65;6.63;;;18.30;99.90;;;;;;5010804;28;20103;-63
2023/09/09 01:58:51;;;;;;;9.35;6.78;;;18.30;99.90;;;;;;5000396;28;20022;-64
2023/09/09 02:01:17;;;;;;;7.63;6.80;;;18.30;99.90;;;;;;4990503;28;20499;-64
2023/09/09 02:03:42;;;;;;;7.88;7.07;;;18.30;99.90;;;;;;5000378;28;20124;-63
2023/09/09 02:06:08;;;;;;;8.68;6.45;;;18.20;99.90;;;;;;4999577;28;20052;-63
2023/09/09 02:08:34;;;;;;;6.80;6.20;;;18.20;99.90;;;;;;4992920;28;20050;-63
2023/09/09 02:10:59;;;;;;;9.13;6.75;;;18.10;99.90;;;;;;4973007;28;20546;-63
2023/09/09 02:13:25;;;;;;;14.82;7.40;;;18.20;99.90;;;;;;4978433;28;20060;-63
2023/09/09 02:15:51;;;;;;;6.97;6.32;;;18.10;99.90;;;;;;4989120;28;20042;-63
2023/09/09 02:18:17;;;;;;;8.32;6.68;;;18.10;99.90;;;;;;4992941;28;20049;-63
2023/09/09 02:20:42;;;;;;;9.93;7.18;;;18.10;99.90;;;;;;4991525;28;20085;-64
2023/09/09 02:23:10;;;;;;;8.38;6.97;;;18.00;99.90;;;;;;5010748;28;20525;-63
2023/09/09 02:25:37;;;;;;;11.68;6.88;;;18.00;99.90;;;;;;5009789;28;20487;-63
2023/09/09 02:28:03;;;;;;;9.23;6.93;;;18.00;99.90;;;;;;4991278;28;20199;-63
2023/09/09 02:30:30;;;;;;;11.50;7.85;;;18.00;99.90;;;;;;4992725;28;20045;-63
2023/09/09 02:32:57;;;;;;;7.95;6.68;;;18.00;99.90;;;;;;4991522;28;20418;-63
2023/09/09 02:35:22;;;;;;;12.75;7.47;;;17.90;99.90;;;;;;5009799;28;20568;-63
2023/09/09 02:37:48;;;;;;;8.25;6.88;;;17.90;99.90;;;;;;5009198;28;20121;-63
2023/09/09 02:40:14;;;;;;;10.27;8.07;;;17.90;99.90;;;;;;4989265;28;20124;-63
2023/09/09 02:42:39;;;;;;;9.63;7.13;;;17.90;99.90;;;;;;5005648;28;20519;-63
2023/09/09 02:45:05;;;;;;;8.85;7.32;;;17.90;99.90;;;;;;5005937;28;20045;-64
2023/09/09 02:47:31;;;;;;;9.82;7.85;;;17.90;99.90;;;;;;5007973;28;20126;-63
2023/09/09 02:49:57;;;;;;;12.10;8.00;;;17.90;99.90;;;;;;5008785;28;20496;-63
2023/09/09 02:52:23;;;;;;;9.32;7.57;;;17.90;99.90;;;;;;4992101;28;20054;-63
2023/09/09 02:54:48;;;;;;;7.90;7.00;;;17.90;99.90;;;;;;5008839;28;20056;-63
2023/09/09 02:57:14;;;;;;;9.52;7.53;;;17.90;99.90;;;;;;5007768;28;20050;-63
2023/09/09 02:59:40;;;;;;;9.48;7.95;;;17.90;99.90;;;;;;4975037;28;20057;-63
2023/09/09 03:02:06;;;;;;;9.90;7.68;;;17.90;99.90;;;;;;5009997;28;20404;-63
2023/09/09 03:04:31;;;;;;;15.13;7.15;;;17.90;99.90;;;;;;5008883;28;20070;-64
2023/09/09 03:06:57;;;;;;;11.00;7.57;;;17.90;99.90;;;;;;5009012;28;20052;-64
2023/09/09 03:09:24;;;;;;;11.10;8.18;;;17.90;99.90;;;;;;5009874;28;20064;-63
2023/09/09 03:11:50;;;;;;;10.02;7.90;;;17.90;99.90;;;;;;5008606;28;20038;-63
2023/09/09 03:14:16;;;;;;;10.10;7.88;;;17.80;99.90;;;;;;5009717;28;20121;-63
2023/09/09 03:16:45;;;;;;;11.60;8.25;;;17.90;99.90;;;;;;5005041;28;20049;-64
2023/09/09 03:19:11;;;;;;;8.15;7.28;;;17.80;99.90;;;;;;5007562;28;20096;-63
2023/09/09 03:21:36;;;;;;;10.68;7.93;;;17.80;99.90;;;;;;5007850;28;20096;-63
2023/09/09 03:24:02;;;;;;;11.35;8.23;;;17.80;99.90;;;;;;5009338;28;20053;-63
2023/09/09 03:26:28;;;;;;;11.15;8.95;;;17.80;99.90;;;;;;4991369;28;20050;-63
2023/09/09 03:28:53;;;;;;;11.75;8.13;;;17.80;99.90;;;;;;5008481;28;20041;-63
2023/09/09 03:31:19;;;;;;;9.55;8.20;;;17.80;99.90;;;;;;5008932;28;20194;-63
2023/09/09 03:33:45;;;;;;;10.82;8.70;;;17.80;99.90;;;;;;5007943;28;20492;-63
2023/09/09 03:36:10;;;;;;;10.00;8.13;;;17.80;99.90;;;;;;5009572;28;20066;-63
2023/09/09 03:38:37;;;;;;;15.10;9.25;;;17.80;99.90;;;;;;4989760;28;20081;-63
2023/09/09 03:41:06;;;;;;;15.57;8.95;;;17.80;99.90;;;;;;4988375;28;20046;-63
2023/09/09 03:43:34;;;;;;;;;;;17.80;99.90;;;;;;5002467;28;20061;-63
2023/09/09 03:45:59;;;;;;;11.35;8.88;;;17.80;99.90;;;;;;4990249;28;19921;-63
2023/09/09 03:48:25;;;;;;;10.75;8.15;;;17.80;99.90;;;;;;5008942;28;20061;-63
2023/09/09 03:50:51;;;;;;;12.48;8.75;;;17.80;99.90;;;;;;5007056;28;20385;-64
2023/09/09 03:53:17;;;;;;;15.02;10.50;;;17.80;99.90;;;;;;5008993;28;20073;-63
2023/09/09 03:55:42;;;;;;;12.05;9.55;;;17.80;99.90;;;;;;4989816;28;20046;-64
2023/09/09 03:58:08;;;;;;;12.57;9.55;;;17.80;99.90;;;;;;5008698;28;20567;-63
2023/09/09 04:00:36;;;;;;;10.98;9.23;;;17.80;99.90;;;;;;4988677;28;20042;-63
2023/09/09 04:03:02;;;;;;;13.85;10.18;;;17.70;99.90;;;;;;4991914;28;20053;-63
2023/09/09 04:05:28;;;;;;;13.13;9.77;;;17.80;99.90;;;;;;5008551;28;20038;-63
2023/09/09 04:07:58;;;;;;;17.67;11.10;;;17.80;99.90;;;;;;5007558;28;20045;-63
2023/09/09 04:10:23;;;;;;;17.85;11.38;;;17.70;99.90;;;;;;5008720;28;20050;-64
2023/09/09 04:12:49;;;;;;;16.65;10.43;;;17.70;99.90;;;;;;4984517;28;20165;-64
2023/09/09 04:15:15;;;;;;;14.90;10.93;;;17.70;99.90;;;;;;5008846;28;20054;-63
2023/09/09 04:17:41;;;;;;;14.00;10.90;;;17.80;99.90;;;;;;4997290;28;20038;-63
2023/09/09 04:20:10;;;;;;;12.48;10.27;;;17.80;99.90;;;;;;4990808;28;20056;-63
2023/09/09 04:22:36;;;;;;;11.32;9.82;;;17.80;99.90;;;;;;4954289;28;20050;-63
2023/09/09 04:25:02;;;;;;;14.15;10.98;;;17.80;99.90;;;;;;4973650;28;20049;-63
2023/09/09 04:27:28;;;;;;;11.98;9.73;;;17.80;99.90;;;;;;4988545;28;20068;-63
2023/09/09 04:29:53;;;;;;;14.95;10.88;;;17.80;99.90;;;;;;5006925;28;20141;-64
2023/09/09 04:32:19;;;;;;;17.77;10.88;;;17.80;99.90;;;;;;4979888;28;20532;-63
2023/09/09 04:34:45;;;;;;;12.63;9.70;;;17.80;99.90;;;;;;4989054;28;20476;-63
2023/09/09 04:37:11;;;;;;;16.92;10.43;;;17.80;99.90;;;;;;5008045;28;20488;-64
2023/09/09 04:39:36;;;;;;;13.15;10.10;;;17.70;99.90;;;;;;4993448;28;20046;-63
2023/09/09 04:42:02;;;;;;;14.38;10.23;;;17.70;99.90;;;;;;5007636;28;20101;-63
2023/09/09 04:44:28;;;;;;;15.70;11.25;;;17.70;99.90;;;;;;4996906;28;20500;-63
2023/09/09 04:46:53;;;;;;;17.60;10.23;;;17.70;99.90;;;;;;5006087;28;20052;-63
2023/09/09 04:49:19;;;;;;;14.80;10.70;;;17.70;99.90;;;;;;4990862;28;20137;-63
2023/09/09 04:51:45;;;;;;;14.27;11.07;;;17.70;99.90;;;;;;4988275;28;20056;-63
2023/09/09 04:54:10;;;;;;;18.10;11.38;;;17.60;99.90;;;;;;5007863;28;20077;-63
2023/09/09 04:56:36;;;;;;;12.77;11.02;;;17.70;99.90;;;;;;4991107;28;20058;-63
2023/09/09 04:59:02;;;;;;;17.67;12.77;;;17.60;99.90;;;;;;5007823;28;20104;-63
2023/09/09 05:01:28;;;;;;;17.88;12.73;;;17.60;99.90;;;;;;4986270;28;20388;-63
2023/09/09 05:03:53;;;;;;;16.48;12.23;;;17.60;99.90;;;;;;5004643;28;20050;-63
2023/09/09 05:06:19;;;;;;;14.68;12.20;;;17.60;99.90;;;;;;5000889;28;20042;-64
2023/09/09 05:08:46;;;;;;;15.20;11.98;;;17.60;99.90;;;;;;4988136;28;20528;-64
2023/09/09 05:11:11;;;;;;;19.60;12.73;;;17.60;99.90;;;;;;4989694;28;20074;-63
2023/09/09 05:13:37;;;;;;;17.13;11.90;;;17.70;99.90;;;;;;5006960;28;20069;-63
2023/09/09 05:16:03;;;;;;;19.30;13.20;;;17.60;99.90;;;;;;4996137;28;20123;-64
2023/09/09 05:18:29;;;;;;;23.33;14.60;;;17.70;99.90;;;;;;4989300;28;20049;-64
2023/09/09 05:20:55;;;;;;;17.58;12.50;;;17.70;99.90;;;;;;5006769;28;20088;-63
2023/09/09 05:23:20;;;;;;;17.00;12.73;;;17.70;99.90;;;;;;5007554;28;20034;-63
2023/09/09 05:25:47;;;;;;;18.98;13.27;;;17.70;99.90;;;;;;4973741;28;20043;-63
2023/09/09 05:28:13;;;;;;;16.55;11.77;;;17.70;99.90;;;;;;4987314;28;20042;-63
2023/09/09 05:30:40;;;;;;;15.00;11.93;;;17.70;99.90;;;;;;5005963;28;20053;-63
2023/09/09 05:33:06;;;;;;;14.35;11.07;;;17.70;99.90;;;;;;5007248;28;20041;-63
2023/09/09 05:35:32;;;;;;;18.05;12.38;;;17.70;99.90;;;;;;5004769;28;20113;-63
2023/09/09 05:37:58;;;;;;;13.05;11.13;;;17.80;99.90;;;;;;4988216;28;20519;-64
2023/09/09 05:40:24;;;;;;;13.63;10.88;;;17.70;99.90;;;;;;4990849;28;20053;-63
2023/09/09 05:42:50;;;;;;;15.32;10.13;;;17.80;99.90;;;;;;4987185;28;20042;-63
2023/09/09 05:45:15;;;;;;;14.50;10.10;;;17.80;99.90;;;;;;5007816;28;20034;-63
2023/09/09 05:47:42;;;;;;;12.15;10.35;;;17.80;99.90;;;;;;4982264;28;20517;-63
2023/09/09 05:50:08;;;;;;;14.15;10.45;;;17.80;99.90;;;;;;5007480;28;20486;-63
2023/09/09 05:52:34;;;;;;;11.85;9.57;;;17.80;99.90;;;;;;5005637;28;20052;-63
2023/09/09 05:55:00;;;;;;;12.15;10.05;;;17.80;99.90;;;;;;5001439;28;20046;-63
2023/09/09 05:57:25;;;;;;;14.90;10.80;;;17.80;99.90;;;;;;5006494;28;20049;-63
2023/09/09 05:59:51;;;;;;;12.73;10.55;;;17.90;99.90;;;;;;5006441;28;20046;-63
2023/09/09 06:02:17;;;;;;;14.57;10.68;;;17.90;99.90;;;;;;4978609;28;20038;-64
2023/09/09 06:04:43;;;;;;;13.88;10.52;;;18.00;99.90;;;;;;4984435;28;20093;-63
2023/09/09 06:07:09;;;;;;;16.20;10.52;;;18.00;99.90;;;;;;4992852;28;20106;-63
2023/09/09 06:09:34;;;;;;;12.75;10.93;;;18.00;99.90;;;;;;4974322;28;20481;-63
2023/09/09 06:12:01;;;;;;;13.70;11.13;;;18.10;99.90;;;;;;4997827;28;20050;-63
2023/09/09 06:14:27;;;;;;;14.27;11.60;;;18.10;99.90;;;;;;4971156;28;20046;-63
2023/09/09 06:16:53;;;;;;;21.92;11.65;;;18.20;99.90;;;;;;4992770;28;20124;-63
2023/09/09 06:19:18;;;;;;;15.30;11.48;;;18.20;99.90;;;;;;4991913;28;20050;-63
2023/09/09 06:21:44;;;;;;;16.25;10.88;;;18.30;99.90;;;;;;4986796;28;20042;-63
2023/09/09 06:24:12;;;;;;;16.35;12.23;;;18.40;99.90;;;;;;4990454;28;20078;-63
2023/09/09 06:26:38;;;;;;;15.45;11.90;;;18.50;99.90;;;;;;4942837;28;20038;-63
2023/09/09 06:29:04;;;;;;;13.10;11.70;;;18.50;99.90;;;;;;5008079;28;20041;-63
2023/09/09 06:31:30;;;;;;;18.50;12.20;;;18.60;99.90;;;;;;4993089;28;20069;-63
2023/09/09 06:33:56;;;;;;;13.48;12.02;;;18.70;99.90;;;;;;4982923;28;20062;-63
2023/09/09 06:36:22;;;;;;;17.88;12.77;;;18.80;99.90;;;;;;4981764;28;20072;-63
2023/09/09 06:38:49;;;;;;;15.13;11.38;;;19.00;99.90;;;;;;4989959;28;20053;-63
2023/09/09 06:41:15;;;;;;;18.05;12.18;;;19.30;99.90;;;;;;4973517;28;20448;-63
2023/09/09 06:43:42;;;;;;;15.27;11.80;;;19.60;99.90;;;;;;4989227;28;20493;-63
2023/09/09 06:46:08;;;;;;;18.15;13.23;;;20.00;99.90;;;;;;4989192;28;20444;-63
2023/09/09 06:48:34;;;;;;;15.23;12.57;;;20.20;99.90;;;;;;4987559;28;20042;-63
2023/09/09 06:51:00;;;;;;;15.38;11.88;;;20.40;99.90;;;;;;4991572;28;20037;-63
2023/09/09 06:53:26;;;;;;;16.45;12.25;;;20.70;99.90;;;;;;4989633;28;20030;-63
2023/09/09 06:55:52;;;;;;;18.15;12.68;;;20.80;99.90;;;;;;4981289;28;20129;-64
2023/09/09 06:58:18;;;;;;;15.32;12.48;;;21.10;99.90;;;;;;4984647;28;20054;-63
2023/09/09 07:00:50;;;;;;;16.90;12.52;;;21.30;99.90;;;;;;4988011;28;20050;-63
2023/09/09 07:03:16;;;;;;;15.98;11.85;;;21.50;99.90;;;;;;4971962;28;20046;-63
2023/09/09 07:05:42;;;;;;;13.85;11.75;;;21.70;99.90;;;;;;4970208;28;20042;-64
2023/09/09 07:08:08;;;;;;;15.80;12.13;;;21.90;99.90;;;;;;4989190;28;20081;-63
2023/09/09 07:10:34;;;;;;;17.40;11.93;;;22.10;99.90;;;;;;4989013;28;20125;-63
2023/09/09 07:13:00;;;;;;;15.48;12.45;;;22.30;99.90;;;;;;4989294;28;20129;-63
2023/09/09 07:15:26;;;;;;;20.88;11.90;;;22.50;99.90;;;;;;4970872;28;20054;-63
2023/09/09 07:17:52;;;;;;;15.10;12.13;;;22.70;99.90;;;;;;4982709;28;20051;-63
2023/09/09 07:20:17;;;;;;;21.33;12.20;;;22.90;99.90;;;;;;4982423;28;20050;-63
2023/09/09 07:22:43;;;;;;;16.77;12.45;;;23.10;99.90;;;;;;4988399;28;20095;-63
2023/09/09 07:25:09;;;;;;;15.75;12.27;;;23.20;99.90;;;;;;4988077;28;20477;-63
2023/09/09 07:27:35;;;;;;;14.93;11.05;;;23.40;99.90;;;;;;4985669;28;20519;-64
2023/09/09 07:30:01;;;;;;;14.07;11.98;;;23.60;99.90;;;;;;4988767;28;20120;-63
2023/09/09 07:32:26;;;;;;;16.52;11.50;;;23.80;99.00;;;;;;4978631;28;20054;-63
2023/09/09 07:34:52;;;;;;;17.40;11.55;;;24.00;96.70;;;;;;4990747;28;20090;-63
2023/09/09 07:37:18;;;;;;;17.33;11.48;;;24.20;96.10;;;;;;4984472;28;20122;-63
2023/09/09 07:39:45;;;;;;;16.70;10.05;;;24.30;93.90;;;;;;4985306;28;20106;-63
2023/09/09 07:42:12;;;;;;;14.82;11.35;;;24.50;94.10;;;;;;4971247;28;20050;-63
2023/09/09 07:44:38;;;;;;;16.50;10.98;;;24.60;92.20;;;;;;4984949;28;20038;-64
2023/09/09 07:47:06;;;;;;;16.25;10.88;;;24.80;90.90;;;;;;4976011;28;20039;-64
2023/09/09 07:49:33;;;;;;;12.75;10.25;;;24.90;90.00;;;;;;4999096;28;20466;-63
2023/09/09 07:51:59;;;;;;;13.82;10.45;;;25.10;86.80;;;;;;4999890;28;20056;-63
2023/09/09 07:54:25;;;;;;;11.15;9.23;;;25.20;87.60;;;;;;4998052;28;20057;-63
2023/09/09 07:56:51;;;;;;;10.48;9.48;;;25.30;87.20;;;;;;4988137;28;20412;-64
2023/09/09 07:59:17;;;;;;;11.20;8.80;;;25.50;80.20;;;;;;4983833;28;20042;-64
2023/09/09 08:01:44;;;;;;;13.82;9.75;;;25.50;76.00;;;;;;4987802;28;20674;-63
2023/09/09 08:04:10;;;;;;;14.35;8.90;;;25.60;74.90;;;;;;4971204;28;20077;-64
2023/09/09 08:06:35;;;;;;;15.35;9.02;;;25.70;74.70;;;;;;4966273;28;20085;-64
2023/09/09 08:09:01;;;;;;;18.20;9.15;;;25.80;68.30;;;;;;4966107;28;20140;-63
2023/09/09 08:11:27;;;;;;;10.88;8.65;;;25.90;66.40;;;;;;5007794;28;21240;-63
2023/09/09 08:13:52;;;;;;;11.30;8.85;;;26.00;57.80;;;;;;4990159;28;20513;-64
2023/09/09 08:16:18;;;;;;;14.23;9.20;;;26.10;46.80;;;;;;5008517;28;20050;-64
2023/09/09 08:18:44;;;;;;;11.57;9.38;;;26.20;34.60;;;;;;4966530;28;20059;-64
2023/09/09 08:21:12;;;;;;;11.02;9.27;;;26.20;29.30;;;;;;4967408;28;20089;-64
2023/09/09 08:23:41;;;;;;;9.88;8.52;;;26.30;37.60;;;;;;5006892;28;20054;-64
2023/09/09 08:26:07;;;;;;;13.80;9.43;;;26.40;28.80;;;;;;5006885;28;20046;-64
2023/09/09 08:28:33;;;;;;;11.90;9.40;;;26.50;24.80;;;;;;4982815;28;20065;-64
2023/09/09 08:30:59;;;;;;;11.60;7.70;;;26.60;17.50;;;;;;5000908;28;20046;-64
2023/09/09 08:33:26;;;;;;;10.73;8.23;;;26.60;17.20;;;;;;4998159;28;20687;-63
2023/09/09 08:35:56;;;;;;;11.98;6.80;;;26.70;13.70;;;;;;4968841;28;20180;-63
2023/09/09 08:38:22;;;;;;;7.07;6.38;;;26.80;11.00;;;;;;5004328;28;20050;-64
2023/09/09 08:41:03;;;;;;;12.82;8.85;;;26.90;9.00;;;;;;5002645;28;20048;-64
2023/09/09 08:43:43;;;;;;;11.20;6.95;;;26.90;1.00;;;;;;5000179;28;20112;-63
2023/09/09 08:46:13;;;;;;;8.18;6.80;;;26.90;1.00;;;;;;5006289;28;20496;-63
2023/09/09 08:48:41;;;;;;;7.18;6.18;;;26.90;1.00;;;;;;5007068;28;20400;-64
2023/09/09 08:51:13;;;;;;;11.02;5.30;;;27.00;1.00;;;;;;4987617;28;20562;-63
2023/09/09 08:53:43;;;;;;;6.88;5.68;;;27.00;1.00;;;;;;4984794;28;20038;-64
2023/09/09 08:56:12;;;;;;;9.23;5.70;;;27.10;1.00;;;;;;4988041;28;20038;-64
2023/09/09 08:58:40;;;;;;;;;;;27.20;1.00;;;;;;4969622;28;20058;-64
2023/09/09 09:01:06;;;;;;;8.48;4.53;;;27.30;1.00;;;;;;4966512;28;19922;-64
2023/09/09 09:03:33;;;;;;;5.07;4.07;;;27.30;1.00;;;;;;4970383;28;20062;-64
2023/09/09 09:06:03;;;;;;;5.70;4.50;;;27.40;1.00;;;;;;4996930;28;20447;-64
2023/09/09 09:08:29;;;;;;;4.78;4.20;;;27.40;1.00;;;;;;4976612;28;20058;-64
2023/09/09 09:10:59;;;;;;;6.10;4.13;;;27.50;1.00;;;;;;4982028;28;20089;-64
2023/09/09 09:13:25;;;;;;;7.70;4.47;;;27.60;1.00;;;;;;4977066;28;20048;-64
2023/09/09 09:15:51;;;;;;;6.85;4.00;;;27.60;1.00;;;;;;4985888;28;20461;-64
2023/09/09 09:18:16;;;;;;;7.28;4.15;;;27.70;1.00;;;;;;4987902;28;20210;-63
2023/09/09 09:20:42;;;;;;;6.20;4.63;;;27.80;1.00;;;;;;4969919;28;20070;-63
2023/09/09 09:23:12;;;;;;;4.40;4.05;;;27.80;1.00;;;;;;4979021;28;20034;-64
2023/09/09 09:25:44;;;;;;;6.57;4.43;;;27.80;1.00;;;;;;4986137;28;20441;-64
2023/09/09 09:28:12;;;;;;;6.47;4.72;;;27.90;1.00;;;;;;4973316;28;20425;-64
2023/09/09 09:30:37;;;;;;;10.70;3.88;;;27.90;1.00;;;;;;4970260;28;20588;-64
2023/09/09 09:33:03;;;;;;;9.70;4.82;;;28.00;1.00;;;;;;4927959;28;20046;-64
2023/09/09 09:35:30;;;;;;;5.78;3.83;;;28.00;1.00;;;;;;4945535;28;20573;-64
2023/09/09 09:38:07;;;;;;;7.53;5.07;;;28.10;1.00;;;;;;4974796;28;20497;-64
2023/09/09 09:40:35;;;;;;;6.85;4.70;;;28.20;1.00;;;;;;4962764;28;20128;-64
2023/09/09 09:43:01;;;;;;;7.97;4.70;;;28.20;1.00;;;;;;4978980;28;20096;-64
2023/09/09 09:45:29;;;;;;;5.25;4.75;;;28.30;1.00;;;;;;4968044;28;20594;-64
2023/09/09 09:47:58;;;;;;;8.57;5.32;;;28.30;1.00;;;;;;4950949;28;20400;-64
2023/09/09 09:50:30;;;;;;;6.45;5.28;;;28.30;1.00;;;;;;4967927;28;20100;-64
2023/09/09 09:53:01;;;;;;;8.30;5.90;;;28.30;1.00;;;;;;4998049;28;20385;-64
2023/09/09 09:55:29;;;;;;;8.13;5.28;;;28.30;1.00;;;;;;4981215;28;20081;-63
2023/09/09 09:58:03;;;;;;;7.63;5.05;;;28.30;1.00;;;;;;4991758;28;20428;-64
2023/09/09 10:00:29;;;;;;;5.68;4.90;;;28.40;1.00;;;;;;4991550;28;20100;-64
2023/09/09 10:03:00;;;;;;;8.63;4.95;;;28.50;1.00;;;;;;4989186;28;20066;-64
2023/09/09 10:05:28;;;;;;;7.22;5.35;;;28.50;1.00;;;;;;4975319;28;20054;-64
2023/09/09 10:08:05;;;;;;;9.00;4.97;;;28.60;1.00;;;;;;4992682;28;20039;-64
2023/09/09 10:10:33;;;;;;;4.90;4.50;;;28.70;1.00;;;;;;4993792;28;20046;-64
2023/09/09 10:13:07;;;;;;;6.88;5.22;;;28.70;1.00;;;;;;4973709;28;20050;-64
2023/09/09 10:15:35;;;;;;;6.65;5.00;;;28.80;1.00;;;;;;4989630;28;20049;-64
2023/09/09 10:18:03;;;;;;;7.68;4.40;;;28.80;1.00;;;;;;4991007;28;20083;-64
2023/09/09 10:20:30;;;;;;;9.48;5.10;;;28.90;1.00;;;;;;4989148;28;20544;-64
2023/09/09 10:22:59;;;;;;;6.88;4.75;;;29.00;1.00;;;;;;4986512;28;20055;-64
2023/09/09 10:25:27;;;;;;;7.28;5.10;;;29.00;1.00;;;;;;4989534;28;20050;-64
2023/09/09 10:27:52;;;;;;;10.20;5.72;;;29.00;1.00;;;;;;4990394;28;20489;-64
2023/09/09 10:30:19;;;;;;;8.38;5.40;;;29.00;1.00;;;;;;4990604;28;20057;-64
2023/09/09 10:32:46;;;;;;;7.35;4.93;;;29.00;1.00;;;;;;4971181;28;20511;-64
2023/09/09 10:35:12;;;;;;;9.50;5.45;;;28.90;1.00;;;;;;4973776;28;20034;-64
2023/09/09 10:37:38;;;;;;;8.60;5.20;;;28.90;1.00;;;;;;4988846;28;20050;-65
2023/09/09 10:40:08;;;;;;;10.60;5.10;;;28.90;1.00;;;;;;4972986;28;20054;-64
2023/09/09 10:42:39;;;;;;;5.28;4.65;;;28.90;1.00;;;;;;4987649;28;20710;-64
2023/09/09 10:45:41;;;;;;;7.80;4.35;;;28.90;1.00;;;;;;4974223;28;20057;-64
2023/09/09 10:48:10;;;;;;;7.35;4.78;;;28.90;1.00;;;;;;4953645;28;20062;-64
2023/09/09 10:50:50;;;;;;;5.00;4.40;;;28.80;1.00;;;;;;4971030;28;20114;-64
2023/09/09 10:53:28;;;;;;;6.18;4.40;;;28.90;1.00;;;;;;4982901;28;20054;-64
2023/09/09 10:55:55;;;;;;;8.18;4.40;;;28.90;1.00;;;;;;4981648;28;20039;-64
2023/09/09 10:58:29;;;;;;;6.25;3.97;;;29.00;1.00;;;;;;4953865;28;20047;-64
2023/09/09 11:00:55;;;;;;;7.75;4.85;;;29.10;1.00;;;;;;4971413;28;20400;-64
2023/09/09 11:03:22;;;;;;;7.80;4.18;;;29.10;1.00;;;;;;4975550;28;20047;-64
2023/09/09 11:06:00;;;;;;;8.90;4.25;;;29.10;1.00;;;;;;4990799;28;20050;-64
2023/09/09 11:08:29;;;;;;;16.97;4.30;;;29.20;1.00;;;;;;4970793;28;20495;-64
2023/09/09 11:11:18;;;;;;;5.88;4.85;;;29.20;1.00;;;;;;4956106;28;20058;-64
2023/09/09 11:14:09;;;;;;;7.93;4.88;;;29.20;1.00;;;;;;4989867;28;20050;-65
2023/09/09 11:16:40;;;;;;;4.38;3.97;;;29.20;1.00;;;;;;4975645;28;20124;-64
2023/09/09 11:19:14;;;;;;;8.68;4.97;;;29.10;1.00;;;;;;4989883;28;20046;-64
2023/09/09 11:21:43;;;;;;;15.70;4.07;;;29.10;1.00;;;;;;4988695;28;20046;-64
2023/09/09 11:24:10;;;;;;;6.65;3.92;;;29.10;1.00;;;;;;4989099;28;20416;-64
2023/09/09 11:26:43;;;;;;;8.43;5.25;;;29.10;1.00;;;;;;4988967;28;20038;-64
2023/09/09 11:29:09;;;;;;;7.35;6.05;;;29.20;1.00;;;;;;4971657;28;20129;-64
2023/09/09 11:31:38;;;;;;;12.15;5.30;;;29.20;1.00;;;;;;4988770;28;20042;-64
2023/09/09 11:34:05;;;;;;;8.75;5.22;;;29.20;1.00;;;;;;4971869;28;20057;-64
2023/09/09 11:36:31;;;;;;;10.52;5.20;;;29.20;1.00;;;;;;4980808;28;20629;-64
2023/09/09 11:39:01;;;;;;;8.23;4.53;;;29.20;1.00;;;;;;4988473;28;20092;-64
2023/09/09 11:41:34;;;;;;;9.15;6.72;;;29.20;1.00;;;;;;4988767;28;20552;-64
2023/09/09 11:44:07;;;;;;;11.93;7.18;;;29.00;1.00;;;;;;4989669;28;20080;-64
2023/09/09 11:46:41;;;;;;;7.40;6.70;;;28.80;1.00;;;;;;4987516;28;20559;-65
2023/09/09 11:49:07;;;;;;;10.95;7.50;;;28.60;1.00;;;;;;4989296;28;20034;-65
2023/09/09 11:51:34;;;;;;;7.63;6.72;;;28.40;1.00;;;;;;4975868;28;20571;-64
2023/09/09 11:54:00;;;;;;;9.88;7.97;;;28.10;1.00;;;;;;5002451;28;20118;-64
2023/09/09 11:56:27;;;;;;;9.95;8.43;;;28.00;1.00;;;;;;5001566;28;20089;-64
2023/09/09 11:58:53;;;;;;;13.13;9.35;;;27.80;1.00;;;;;;4992893;28;20168;-64
2023/09/09 12:01:20;;;;;;;11.45;10.20;;;27.70;1.00;;;;;;5006388;28;20152;-64
2023/09/09 12:03:48;;;;;;;14.95;11.90;;;27.60;1.00;;;;;;4985860;28;20064;-64
2023/09/09 12:06:17;;;;;;;16.33;12.82;;;27.50;1.00;;;;;;5008839;28;20626;-65
2023/09/09 12:08:43;;;;;;;16.58;13.40;;;27.20;1.00;;;;;;4993544;28;20503;-65
2023/09/09 12:11:12;;;;;;;20.08;14.35;;;27.10;6.60;;;;;;5008686;28;20033;-64
2023/09/09 12:13:38;;;;;;;16.98;14.32;;;27.00;13.40;;;;;;5007932;28;20045;-64
2023/09/09 12:16:07;;;;;;;18.10;13.38;;;26.90;11.00;;;;;;4990104;28;20081;-64
2023/09/09 12:18:33;;;;;;;15.48;11.40;;;26.70;14.20;;;;;;4997526;28;20095;-65
2023/09/09 12:21:03;;;;;;;13.60;9.95;;;26.50;15.40;;;;;;5000967;28;20049;-64
2023/09/09 12:23:30;;;;;;;10.70;9.10;;;26.50;14.10;;;;;;5008766;28;20112;-65
2023/09/09 12:25:56;;;;;;;11.57;8.02;;;26.40;6.20;;;;;;4989510;28;20069;-64
2023/09/09 12:28:22;;;;;;;6.35;5.68;;;26.40;5.60;;;;;;5003221;28;20490;-64
2023/09/09 12:30:50;;;;;;;4.78;4.28;;;26.30;1.70;;;;;;4999228;28;20050;-64
2023/09/09 12:33:17;;;;;;;4.72;4.32;;;26.40;1.00;;;;;;4995438;28;20400;-64
2023/09/09 12:35:49;;;;;;;7.63;4.13;;;26.30;1.00;;;;;;5008052;28;20038;-64
2023/09/09 12:38:16;;;;;;;5.63;4.25;;;26.40;1.00;;;;;;5006786;28;20045;-64
2023/09/09 12:40:50;;;;;;;5.22;4.13;;;26.30;1.00;;;;;;4974705;28;20050;-64